• Join FlightAware (Why Join?)
  • Login
  • US Flag 
04:39AM EST


 

Airport Tracker/Info


-or-


 

Live Flight TrackerFlight Track Log ✈ AMF1324 ✈ 14-Nov-2013 ✈ KBGM - KBUF

Flight Track Log - Related Links

Times and Time Zones

All times are in EST time to prevent confusion due to time zone crossing. See the AMF1324 flight status page for this flight to view local times or setup timezone preferences in your user account.

Time Position Orientation Groundspeed Altitude Reporting Facility
EST Latitude Longitude Course Direction KTS MPH feet Rate Location/Type
08:15AM 42.1636 -75.9689 297° West 261 300 3,900  Level New York Center
08:16AM 42.1231 -75.9908 202° Southwest 209 241 5,500 1,680 Climbing New York Center
08:17AM 42.1331 -76.0478 283° West 168 193 7,300 1,260 Climbing New York Center
08:18AM 42.1428 -76.1072 282° West 168 193 8,100 1,200 Climbing New York Center
08:19AM 42.1631 -76.1647 295° West 168 193 9,800 1,560 Climbing New York Center
08:20AM 42.1900 -76.2144 306° West 163 188 11,300 1,080 Climbing New York Center
08:21AM 42.2965 -76.2946 297° West  Level Estimated
08:21AM 42.2186 -76.2728 304° West 168 193 12,000  Level New York Center
08:22AM 42.2467 -76.3397 300° West 185 213 12,000  Level New York Center
08:23AM 42.2647 -76.3750 305° West 211 243 12,000  Level Cleveland Center
08:24AM 42.2994 -76.4503 302° West 211 243 12,000  Level Cleveland Center
08:25AM 42.3328 -76.5144 305° West 209 241 12,000  Level Cleveland Center
08:26AM 42.3583 -76.5844 296° West 207 238 12,000  Level Cleveland Center
08:27AM 42.3883 -76.6519 301° West 211 243 12,000  Level Cleveland Center
08:28AM 42.4156 -76.7228 298° West 213 245 12,000  Level Cleveland Center
08:29AM 42.4444 -76.7897 300° West 209 241 12,000  Level Cleveland Center
08:30AM 42.4758 -76.8736 297° West 209 241 12,000  Level Cleveland Center
08:31AM 42.5028 -76.9447 297° West 211 243 12,000  Level Cleveland Center
08:32AM 42.5292 -77.0150 297° West 212 244 12,000  Level Cleveland Center
08:33AM 42.5536 -77.0858 295° West 210 242 12,000  Level Cleveland Center
08:34AM 42.5803 -77.1503 299° West 200 230 12,000  Level Cleveland Center
08:35AM 42.6067 -77.2169 298° West 202 232 12,000  Level Cleveland Center
08:36AM 42.6394 -77.2967 299° West 202 232 12,000  Level Cleveland Center
08:37AM 42.6694 -77.3603 303° West 202 232 12,000  Level Cleveland Center
08:38AM 42.6967 -77.4244 300° West 199 229 12,000  Level Cleveland Center
08:39AM 42.7075 -77.4497 300° West 196 226 12,000 -120 Level Cleveland Center
08:39AM 42.7267 -77.4856 306° West 198 228 11,900 -540 Descending Cleveland Center
08:40AM 42.7411 -77.5131 306° West 201 231 11,500 -900 Descending Cleveland Center
08:40AM 42.7642 -77.5664 301° West 214 246 11,000 -540 Descending Cleveland Center
08:41AM 42.7711 -77.5844 298° West 215 247 11,000 -420 Level Cleveland Center
08:42AM 42.8042 -77.6506 304° West 203 234 10,500 -780 Descending Cleveland Center
08:43AM 42.8208 -77.7019 294° West 213 245 9,600 -1,200 Descending Cleveland Center
08:43AM 42.8328 -77.7333 297° West 224 258 9,200 -900 Descending Cleveland Center
08:44AM 42.8400 -77.7792 282° West 220 253 8,700 -1,080 Descending Cleveland Center
08:45AM 42.8483 -77.8775 277° West 227 261 7,300 -1,260 Descending Cleveland Center
08:46AM 42.8592 -77.9628 280° West 221 254 6,200 -1,020 Descending Cleveland Center
08:47AM 42.8822 -78.0369 293° West 203 234 5,300 -960 Descending Cleveland Center
08:48AM 42.9067 -78.0992 298° West 198 228 4,300 -660 Descending Cleveland Center
08:49AM 42.9283 -78.1672 294° West 197 227 4,000 -180 Descending Cleveland Center
08:50AM 42.9511 -78.2283 297° West 190 219 4,000  Level Cleveland Center
08:51AM 42.9778 -78.3031 296° West 183 211 4,000  Level Cleveland Center
08:52AM 43.0000 -78.3594 298° West 175 201 4,000 -240 Level Cleveland Center
08:53AM 43.0206 -78.4197 295° West 174 200 3,500 -720 Descending Cleveland Center
08:54AM 43.0417 -78.4736 298° West 168 193 2,600 -540 Descending Cleveland Center
08:55AM 43.0408 -78.5356 269° West 168 193 2,400 -180 Descending Cleveland Center
08:56AM 43.0369 -78.5825 264° West 146 168 2,300 -60 Descending Cleveland Center
08:58AM 43.0000 -78.6500 233° Southwest 101 116 2,300 -240 Level Buffalo TRACON
08:59AM 42.9833 -78.6833 236° Southwest 108 124 1,700 -600 Descending Buffalo TRACON
09:00AM 42.9500 -78.7000 200° South 104 120 1,100 -600 Descending Buffalo TRACON